Time;durP1;ratioP1;P1;durP2;ratioP2;P2;SDS_P1;SDS_P2;PMS_P1;PMS_P2;Temp;Humidity;BMP_temperature;BMP_pressure;BME280_temperature;BME280_humidity;BME280_pressure;Samples;Min_cycle;Max_cycle;Signal;HPM_P1;HPM_P2
2022/12/14 00:02:12;;;;;;;5.60;2.55;;;;;;;5.30;68.18;101275.91;1851186;77;21069;-45
2022/12/14 00:04:41;;;;;;;7.33;2.83;;;;;;;5.28;67.95;101281.59;1852284;77;21146;-46
2022/12/14 00:07:09;;;;;;;9.38;3.12;;;;;;;5.25;67.95;101280.30;1852892;77;21087;-46
2022/12/14 00:09:38;;;;;;;6.53;2.42;;;;;;;5.25;68.02;101282.05;1852828;77;21040;-45
2022/12/14 00:12:09;;;;;;;6.72;2.75;;;;;;;5.21;67.94;101292.96;1852747;77;21055;-46
2022/12/14 00:14:38;;;;;;;5.67;2.30;;;;;;;5.19;67.94;101296.02;1852820;76;21119;-47
2022/12/14 00:17:07;;;;;;;6.35;2.52;;;;;;;5.16;68.02;101299.51;1854089;76;21044;-46
2022/12/14 00:19:36;;;;;;;4.72;2.60;;;;;;;5.10;68.14;101307.39;1852429;77;21084;-46
2022/12/14 00:22:04;;;;;;;4.83;2.35;;;;;;;5.06;68.15;101304.83;1852858;77;21040;-46
2022/12/14 00:24:33;;;;;;;10.35;3.20;;;;;;;5.06;68.07;101307.45;1852555;76;21029;-46
2022/12/14 00:27:01;;;;;;;5.97;3.08;;;;;;;5.06;68.00;101316.58;1859772;76;21036;-46
2022/12/14 00:29:30;;;;;;;5.58;2.83;;;;;;;5.02;68.03;101321.81;1870479;76;21099;-47
2022/12/14 00:31:59;;;;;;;6.00;3.00;;;;;;;5.00;68.03;101328.79;1851008;77;21060;-47
2022/12/14 00:34:27;;;;;;;6.40;2.98;;;;;;;4.98;68.09;101332.27;1853175;76;21114;-46
2022/12/14 00:36:56;;;;;;;10.10;3.45;;;;;;;4.95;68.24;101338.83;1852663;76;21089;-46
2022/12/14 00:39:25;;;;;;;8.35;4.20;;;;;;;4.95;68.27;101342.30;1852731;76;21126;-46
2022/12/14 00:41:53;;;;;;;16.10;6.90;;;;;;;4.98;68.22;101346.20;1852770;77;21036;-48
2022/12/14 00:44:22;;;;;;;12.47;5.33;;;;;;;5.00;68.12;101349.67;1852852;77;21060;-47
2022/12/14 00:46:51;;;;;;;8.58;4.22;;;;;;;5.00;68.04;101352.28;1874497;76;21141;-47
2022/12/14 00:49:20;;;;;;;7.17;3.80;;;;;;;5.02;68.00;101357.50;1887994;76;21120;-47
2022/12/14 00:51:49;;;;;;;13.48;3.80;;;;;;;5.02;67.90;101363.57;1888005;76;21065;-47
2022/12/14 00:54:18;;;;;;;6.72;3.40;;;;;;;5.02;67.87;101360.97;1887300;75;21017;-47
2022/12/14 00:56:46;;;;;;;7.80;3.72;;;;;;;5.00;67.85;101361.41;1888126;76;21034;-46
2022/12/14 00:59:17;;;;;;;5.03;3.15;;;;;;;4.98;67.84;101368.39;1887971;76;21030;-47
2022/12/14 01:01:46;;;;;;;9.55;3.15;;;;;;;4.96;67.74;101365.34;1887998;76;21046;-47
2022/12/14 01:04:18;;;;;;;8.05;2.80;;;;;;;4.93;67.71;101365.37;1883562;76;21027;-46
2022/12/14 01:06:48;;;;;;;7.45;2.75;;;;;;;4.91;67.62;101364.08;1881158;76;21062;-46
2022/12/14 01:09:18;;;;;;;6.80;2.75;;;;;;;4.91;67.54;101375.82;1915942;75;21097;-45
2022/12/14 01:11:47;;;;;;;8.03;3.45;;;;;;;4.89;67.51;101380.19;1892830;75;21103;-47
2022/12/14 01:14:18;;;;;;;6.55;3.12;;;;;;;4.85;67.50;101379.78;1915247;75;21494;-47
2022/12/14 01:16:47;;;;;;;8.78;3.87;;;;;;;4.84;67.47;101370.20;1920589;75;21031;-46
2022/12/14 01:19:16;;;;;;;7.05;2.98;;;;;;;4.83;67.42;101373.67;1920650;75;21101;-48
2022/12/14 01:21:45;;;;;;;7.62;3.35;;;;;;;4.79;67.35;101375.43;1912584;75;20998;-45
2022/12/14 01:24:13;;;;;;;5.78;3.50;;;;;;;4.77;67.39;101376.33;1897605;75;21558;-44
2022/12/14 01:26:42;;;;;;;7.75;3.58;;;;;;;4.74;67.31;101372.41;1897673;75;21124;-44
2022/12/14 01:29:11;;;;;;;8.60;3.33;;;;;;;4.69;67.36;101373.75;1897555;75;21650;-44
2022/12/14 01:31:40;;;;;;;7.33;3.02;;;;;;;4.63;67.37;101377.26;1897436;75;21104;-44
2022/12/14 01:34:10;;;;;;;7.55;3.50;;;;;;;4.58;67.37;101381.63;1897668;75;21034;-44
2022/12/14 01:36:39;;;;;;;5.62;2.75;;;;;;;4.51;67.38;101387.73;1897581;75;21099;-44
2022/12/14 01:39:13;;;;;;;7.53;3.30;;;;;;;4.46;67.36;101386.88;1897580;75;21025;-44
2022/12/14 01:41:48;;;;;;;6.78;3.35;;;;;;;4.37;67.35;101384.30;1897857;75;21080;-44
2022/12/14 01:44:20;;;;;;;7.33;3.58;;;;;;;4.33;67.39;101386.05;1897709;75;21141;-44
2022/12/14 01:46:57;;;;;;;6.42;3.62;;;;;;;4.29;67.40;101384.32;1898589;75;21068;-44
2022/12/14 01:49:35;;;;;;;7.62;4.42;;;;;;;4.27;67.45;101390.42;1891662;75;21096;-45
2022/12/14 01:52:12;;;;;;;10.78;4.58;;;;;;;4.25;67.46;101390.42;1883601;76;21022;-46
2022/12/14 01:54:47;;;;;;;9.25;4.55;;;;;;;4.24;67.42;101402.60;1883650;76;21650;-44
2022/12/14 01:57:17;;;;;;;8.88;5.00;;;;;;;4.24;67.42;101405.20;1883816;76;21022;-44
2022/12/14 01:59:47;;;;;;;8.73;3.95;;;;;;;4.23;67.50;101403.45;1885204;76;21046;-44
2022/12/14 02:02:19;;;;;;;9.75;3.52;;;;;;;4.22;67.56;101409.56;1885258;76;21022;-44
2022/12/14 02:04:54;;;;;;;7.90;3.83;;;;;;;4.24;67.46;101411.72;1884105;75;21088;-45
2022/12/14 02:07:24;;;;;;;9.00;3.98;;;;;;;4.25;67.30;101419.10;1883659;76;21022;-45
2022/12/14 02:09:56;;;;;;;14.00;4.75;;;;;;;4.24;67.33;101415.63;1883769;76;21027;-44
2022/12/14 02:12:33;;;;;;;9.05;4.67;;;;;;;4.23;67.22;101419.09;1883594;76;21039;-46
2022/12/14 02:15:03;;;;;;;6.58;3.87;;;;;;;4.22;67.13;101422.59;1884047;75;21069;-44
2022/12/14 02:17:32;;;;;;;11.63;4.72;;;;;;;4.17;67.18;101420.84;1885250;76;21025;-44
2022/12/14 02:20:03;;;;;;;10.08;4.25;;;;;;;4.13;67.18;101423.02;1885167;76;21079;-44
2022/12/14 02:22:53;;;;;;;7.72;3.47;;;;;;;4.09;67.19;101423.46;1881567;76;21057;-46
2022/12/14 02:25:54;;;;;;;8.90;2.98;;;;;;;4.03;67.18;101429.99;1862485;76;21108;-46
2022/12/14 02:28:43;;;;;;;7.97;3.58;;;;;;;3.99;67.17;101439.55;1853639;77;21484;-45
2022/12/14 02:31:26;;;;;;;7.03;4.12;;;;;;;3.95;67.20;101443.48;1885211;76;21480;-46
2022/12/14 02:34:10;;;;;;;8.58;4.83;;;;;;;3.90;67.23;101446.52;1885347;76;21460;-45
2022/12/14 02:36:47;;;;;;;13.48;5.58;;;;;;;3.84;67.29;101445.64;1884246;76;21054;-45
2022/12/14 02:39:34;;;;;;;10.88;5.53;;;;;;;3.80;67.32;101455.62;1879869;76;21002;-44
2022/12/14 02:42:14;;;;;;;9.58;4.65;;;;;;;3.78;67.42;101467.78;1884830;76;21136;-46
2022/12/14 02:44:55;;;;;;;7.80;4.05;;;;;;;3.73;67.45;101463.00;1866598;76;21114;-43
2022/12/14 02:47:32;;;;;;;16.77;3.92;;;;;;;3.70;67.46;101464.29;1866500;76;21155;-44
2022/12/14 02:50:36;;;;;;;10.50;3.62;;;;;;;3.70;67.45;101473.41;1823703;77;21070;-43
2022/12/14 02:53:20;;;;;;;8.55;3.85;;;;;;;3.69;67.44;101474.30;1853118;77;21141;-47
2022/12/14 02:55:52;;;;;;;5.58;3.02;;;;;;;3.67;67.47;101485.11;1854380;77;21133;-45
2022/12/14 02:58:38;;;;;;;5.67;3.27;;;;;;;3.64;67.46;101485.98;1823878;79;21050;-46
2022/12/14 03:01:10;;;;;;;7.58;3.05;;;;;;;3.63;67.28;101485.98;1823664;78;21054;-48
2022/12/14 03:03:39;;;;;;;4.85;2.33;;;;;;;3.62;67.09;101488.17;1824166;77;21062;-46
2022/12/14 03:06:24;;;;;;;10.23;3.77;;;;;;;3.58;67.15;101494.21;1827391;77;21579;-46
2022/12/14 03:08:47;;;;;;;6.90;3.40;;;;;;;3.55;66.93;101490.33;1824986;77;21532;-49
2022/12/14 03:11:18;;;;;;;9.38;4.10;;;;;;;3.53;66.78;101493.36;1854431;77;21023;-46
2022/12/14 03:14:06;;;;;;;8.55;4.72;;;;;;;3.48;66.75;101495.94;1825586;77;21105;-46
2022/12/14 03:16:44;;;;;;;13.72;4.80;;;;;;;3.45;66.89;101498.12;1823815;79;21082;-46
2022/12/14 03:19:19;;;;;;;16.02;5.15;;;;;;;3.43;66.87;101516.77;1832058;77;21046;-48
2022/12/14 03:21:50;;;;;;;10.60;4.55;;;;;;;3.41;66.60;101518.91;1854322;77;21075;-47
2022/12/14 03:24:25;;;;;;;15.03;5.37;;;;;;;3.34;66.59;101515.44;1854205;77;21042;-47
2022/12/14 03:26:56;;;;;;;12.45;4.85;;;;;;;3.33;66.71;101512.83;1854123;77;21082;-47
2022/12/14 03:29:31;;;;;;;12.40;4.03;;;;;;;3.28;66.81;101512.39;1854179;77;21046;-47
2022/12/14 03:32:08;;;;;;;10.85;4.53;;;;;;;3.27;66.90;101513.68;1854464;76;21610;-46
2022/12/14 03:34:40;;;;;;;6.75;3.83;;;;;;;3.23;66.96;101514.54;1853162;76;21054;-45
2022/12/14 03:37:14;;;;;;;6.00;2.98;;;;;;;3.21;67.10;101520.14;1852154;76;21166;-45
2022/12/14 03:39:45;;;;;;;7.22;3.67;;;;;;;3.17;67.23;101517.09;1852771;77;21109;-45
2022/12/14 03:42:26;;;;;;;20.70;6.55;;;;;;;3.14;67.12;101527.52;1853984;77;21039;-49
2022/12/14 03:45:31;;;;;;;7.05;3.42;;;;;;;3.08;67.14;101524.42;1853832;77;21117;-45
2022/12/14 03:48:06;;;;;;;6.67;4.00;;;;;;;2.97;67.26;101533.51;1852801;76;21066;-45
2022/12/14 03:50:50;;;;;;;7.87;3.95;;;;;;;2.73;67.57;101538.55;1851677;77;21027;-46
2022/12/14 03:53:30;;;;;;;9.13;4.00;;;;;;;2.61;67.85;101541.52;1853931;77;21051;-45
2022/12/14 03:56:05;;;;;;;9.08;3.62;;;;;;;2.57;67.95;101540.20;1854112;77;21100;-45
2022/12/14 03:59:03;;;;;;;5.45;3.08;;;;;;;2.50;68.11;101544.48;1853639;77;21173;-46
2022/12/14 04:01:47;;;;;;;12.90;3.98;;;;;;;2.41;68.33;101545.27;1852693;77;21102;-48
2022/12/14 04:04:19;;;;;;;9.13;3.87;;;;;;;2.35;68.40;101549.58;1852896;76;21067;-47
2022/12/14 04:06:54;;;;;;;8.88;4.30;;;;;;;2.23;68.67;101546.02;1854109;77;21140;-48
2022/12/14 04:09:34;;;;;;;10.48;4.28;;;;;;;2.23;68.76;101556.42;1854107;77;21094;-48
2022/12/14 04:21:14;;;;;;;9.75;4.17;;;;;;;2.16;69.09;101567.61;1853161;77;21152;-49
2022/12/14 04:26:35;;;;;;;10.90;3.12;;;;;;;2.12;69.28;101569.72;1852746;77;21090;-48
2022/12/14 04:31:56;;;;;;;9.05;3.65;;;;;;;2.16;69.25;101572.81;1852819;77;21042;-49
2022/12/14 04:34:27;;;;;;;13.83;4.75;;;;;;;2.15;69.27;101576.25;1852417;77;21174;-45
2022/12/14 04:36:59;;;;;;;14.00;5.45;;;;;;;2.15;69.36;101584.48;1852742;77;21121;-45
2022/12/14 04:39:48;;;;;;;17.35;5.60;;;;;;;2.14;69.42;101590.11;1852792;77;21180;-45
2022/12/14 04:42:20;;;;;;;25.70;8.28;;;;;;;2.12;69.40;101594.39;1851918;77;21121;-46
2022/12/14 04:44:52;;;;;;;26.70;9.78;;;;;;;2.05;69.68;101598.69;1852810;77;21043;-48
2022/12/14 04:47:23;;;;;;;20.15;7.70;;;;;;;2.00;69.92;101605.99;1852129;77;21047;-48
2022/12/14 04:49:58;;;;;;;18.23;6.70;;;;;;;2.02;69.88;101604.27;1852659;76;21161;-47
2022/12/14 04:52:48;;;;;;;11.80;3.80;;;;;;;2.05;69.79;101609.08;1829825;75;21112;-47
2022/12/14 04:55:28;;;;;;;13.85;4.95;;;;;;;2.09;69.79;101612.14;1851365;77;21509;-47
2022/12/14 04:58:06;;;;;;;20.60;7.92;;;;;;;2.10;69.78;101614.30;1848798;77;21481;-45
2022/12/14 05:00:37;;;;;;;11.63;5.85;;;;;;;2.11;69.79;101626.45;1852741;77;21229;-45
2022/12/14 05:03:27;;;;;;;15.38;7.00;;;;;;;2.15;69.84;101634.71;1852446;75;21120;-44
2022/12/14 05:06:17;;;;;;;26.77;11.30;;;;;;;2.17;69.91;101636.89;1852790;77;21078;-44
2022/12/14 05:09:09;;;;;;;29.70;12.00;;;;;;;2.17;70.04;101642.09;1852773;77;21082;-49
2022/12/14 05:12:16;;;;;;;29.52;11.90;;;;;;;2.20;70.04;101647.33;1852427;75;21133;-48
2022/12/14 05:14:47;;;;;;;18.05;8.38;;;;;;;2.22;70.03;101651.25;1764151;80;21215;-48
2022/12/14 05:17:17;;;;;;;19.82;7.97;;;;;;;2.20;70.30;101659.45;1764336;80;21162;-47
2022/12/14 05:19:50;;;;;;;26.10;7.35;;;;;;;2.17;70.47;101665.48;1809804;77;21035;-47
2022/12/14 05:22:20;;;;;;;13.50;5.87;;;;;;;2.19;70.53;101666.36;1852991;77;21497;-48
2022/12/14 05:24:49;;;;;;;14.03;5.85;;;;;;;2.19;70.83;101666.36;1852751;77;21050;-47
2022/12/14 05:27:18;;;;;;;12.88;5.50;;;;;;;2.20;70.82;101668.12;1852784;77;21079;-50
2022/12/14 05:29:46;;;;;;;25.60;7.97;;;;;;;2.25;70.83;101675.94;1852769;77;21059;-47
2022/12/14 05:32:15;;;;;;;24.72;6.67;;;;;;;2.27;70.94;101683.36;1852800;77;21157;-48
2022/12/14 05:34:44;;;;;;;27.73;9.23;;;;;;;2.33;70.80;101678.64;1852759;77;21031;-49
2022/12/14 05:37:12;;;;;;;34.83;11.25;;;;;;;2.38;70.70;101683.03;1852780;77;21184;-47
2022/12/14 05:39:41;;;;;;;36.98;9.80;;;;;;;2.44;70.72;101690.02;1852797;77;21042;-48
2022/12/14 05:42:10;;;;;;;20.75;7.33;;;;;;;2.47;70.75;101680.92;1852786;77;21018;-46
2022/12/14 05:44:39;;;;;;;10.35;5.12;;;;;;;2.51;70.70;101684.02;1852923;77;21109;-46
2022/12/14 05:47:07;;;;;;;17.77;5.85;;;;;;;2.59;70.75;101685.39;1852721;77;21043;-49
2022/12/14 05:49:36;;;;;;;16.45;6.83;;;;;;;2.73;70.71;101688.09;1866448;76;21503;-47
2022/12/14 05:52:05;;;;;;;21.68;9.50;;;;;;;2.90;70.58;101691.72;1886192;76;21115;-47
2022/12/14 05:54:34;;;;;;;23.77;11.45;;;;;;;3.13;70.43;101696.22;1886076;76;21136;-47
2022/12/14 05:57:05;;;;;;;22.98;8.15;;;;;;;3.42;70.21;101706.38;1886214;76;21065;-49
2022/12/14 05:59:34;;;;;;;22.85;8.75;;;;;;;3.77;69.89;101700.48;1886178;76;21022;-48
2022/12/14 06:02:02;;;;;;;16.45;6.17;;;;;;;3.95;69.45;101706.66;1886121;76;21072;-49
2022/12/14 06:04:31;;;;;;;15.88;6.35;;;;;;;4.13;69.19;101706.72;1885963;76;21092;-47
2022/12/14 06:07:00;;;;;;;12.58;6.95;;;;;;;4.21;68.94;101712.81;1886068;76;21147;-47
2022/12/14 06:09:29;;;;;;;11.33;5.10;;;;;;;4.22;68.87;101717.17;1886098;76;20998;-48
2022/12/14 06:11:57;;;;;;;11.25;5.60;;;;;;;4.24;68.77;101717.16;1886136;76;21025;-48
2022/12/14 06:14:26;;;;;;;15.38;7.97;;;;;;;4.33;68.78;101720.23;1886029;76;21108;-46
2022/12/14 06:16:56;;;;;;;12.40;6.97;;;;;;;4.45;68.78;101721.57;1886078;76;21026;-46
2022/12/14 06:19:24;;;;;;;13.95;7.90;;;;;;;5.09;68.37;101728.99;1886000;76;21069;-46
2022/12/14 06:21:53;;;;;;;19.17;7.92;;;;;;;5.41;67.81;101736.36;1886080;76;21082;-54
2022/12/14 06:24:22;;;;;;;24.23;9.00;;;;;;;5.78;67.32;101741.50;1886042;76;21092;-49
2022/12/14 06:26:50;;;;;;;24.85;9.70;;;;;;;5.94;66.72;101744.94;1886099;76;21107;-55
2022/12/14 06:29:20;;;;;;;18.05;7.85;;;;;;;5.66;66.42;101749.36;1886113;76;21018;-55
2022/12/14 06:31:49;;;;;;;14.03;6.55;;;;;;;5.40;66.57;101749.01;1885998;76;21469;-54
2022/12/14 06:34:18;;;;;;;15.50;6.33;;;;;;;5.20;66.95;101752.05;1886076;76;21046;-55
2022/12/14 06:36:47;;;;;;;19.70;6.70;;;;;;;5.01;67.25;101755.97;1886173;76;21022;-55
2022/12/14 06:39:16;;;;;;;19.92;7.08;;;;;;;4.82;67.53;101760.31;1886085;76;21092;-47
2022/12/14 06:41:48;;;;;;;23.30;8.65;;;;;;;4.66;67.77;101764.20;1886176;76;21026;-48
2022/12/14 06:44:17;;;;;;;14.85;6.53;;;;;;;4.56;67.98;101755.50;1885965;76;21018;-48
2022/12/14 06:46:46;;;;;;;18.00;7.12;;;;;;;4.48;67.98;101763.28;1886175;76;21018;-48
2022/12/14 06:49:16;;;;;;;15.75;6.53;;;;;;;4.47;68.05;101765.47;1886047;76;21112;-49
2022/12/14 06:51:45;;;;;;;14.00;6.28;;;;;;;4.53;68.11;101769.39;1853383;76;21145;-48
2022/12/14 06:54:15;;;;;;;16.25;6.30;;;;;;;4.57;68.10;101775.04;1852698;77;21125;-48
2022/12/14 06:56:47;;;;;;;21.12;7.20;;;;;;;4.56;68.11;101767.23;1852740;77;21043;-51
2022/12/14 06:59:17;;;;;;;22.10;6.08;;;;;;;4.58;68.41;101768.97;1852729;77;21113;-48
2022/12/14 07:01:47;;;;;;;17.52;6.47;;;;;;;4.64;68.55;101774.19;1852674;77;21469;-47
2022/12/14 07:04:17;;;;;;;22.77;7.58;;;;;;;4.67;68.51;101777.27;1852791;77;21042;-46
2022/12/14 07:06:46;;;;;;;22.02;7.42;;;;;;;4.73;68.21;101784.23;1852717;77;21039;-48
2022/12/14 07:09:16;;;;;;;9.83;5.05;;;;;;;4.76;68.17;101789.02;1852735;77;21087;-50
2022/12/14 07:11:45;;;;;;;14.33;6.47;;;;;;;4.80;67.94;101785.98;1852674;76;21114;-47
2022/12/14 07:14:16;;;;;;;15.35;6.20;;;;;;;4.70;67.41;101784.21;1852677;77;21081;-50
2022/12/14 07:16:45;;;;;;;25.20;6.92;;;;;;;4.71;67.84;101785.97;1852710;77;21027;-50
2022/12/14 07:19:16;;;;;;;18.67;6.55;;;;;;;4.88;67.73;101789.45;1852860;77;21144;-49
2022/12/14 07:21:44;;;;;;;19.82;6.20;;;;;;;5.00;67.53;101785.56;1852758;77;21140;-51
2022/12/14 07:24:13;;;;;;;13.40;6.47;;;;;;;5.13;67.26;101785.58;1852821;77;21070;-47
2022/12/14 07:26:42;;;;;;;19.70;5.40;;;;;;;5.24;66.96;101787.75;1852925;77;21014;-48
2022/12/14 07:29:13;;;;;;;16.62;6.40;;;;;;;5.31;66.79;101793.83;1852808;77;21059;-48
2022/12/14 07:31:42;;;;;;;15.45;6.25;;;;;;;5.29;66.93;101792.52;1853058;77;21047;-45
2022/12/14 07:34:12;;;;;;;17.02;7.33;;;;;;;5.31;66.87;101792.11;1852859;77;21062;-47
2022/12/14 07:36:42;;;;;;;11.45;4.60;;;;;;;5.41;66.58;101795.13;1852866;77;21049;-45
2022/12/14 07:39:15;;;;;;;20.12;6.45;;;;;;;5.48;66.14;101796.42;1852924;77;21018;-46
2022/12/14 07:41:45;;;;;;;;;;;;;;;5.49;66.01;101802.09;1855666;77;21079;-48
2022/12/14 07:44:16;;;;;;;17.48;6.58;;;;;;;5.55;66.06;101808.61;1852070;77;20164;-47
2022/12/14 07:46:45;;;;;;;9.75;5.22;;;;;;;5.54;65.91;101808.20;1852871;77;21023;-55
2022/12/14 07:49:16;;;;;;;18.62;5.83;;;;;;;5.51;66.02;101806.87;1852782;77;21121;-50
2022/12/14 07:51:48;;;;;;;15.83;6.05;;;;;;;5.52;66.02;101808.19;1875557;76;21124;-48
2022/12/14 07:54:18;;;;;;;13.08;5.58;;;;;;;5.57;65.90;101806.86;1886398;76;20999;-49
2022/12/14 07:56:47;;;;;;;14.87;6.17;;;;;;;5.58;65.66;101803.39;1886260;76;21088;-48
2022/12/14 07:59:16;;;;;;;15.58;6.25;;;;;;;5.60;65.57;101806.87;1856401;76;21092;-49
2022/12/14 08:01:45;;;;;;;18.77;7.30;;;;;;;5.74;65.55;101810.34;1886139;76;21029;-48
2022/12/14 08:04:17;;;;;;;13.45;6.72;;;;;;;5.88;65.15;101809.43;1886085;76;21136;-49
2022/12/14 08:06:47;;;;;;;31.00;7.92;;;;;;;6.17;65.36;101804.15;1886113;76;21014;-48
2022/12/14 08:09:18;;;;;;;22.02;7.85;;;;;;;6.98;63.85;101800.67;1886219;76;21092;-46
2022/12/14 08:11:47;;;;;;;21.17;7.12;;;;;;;7.44;63.22;101799.84;1886133;76;21421;-47
2022/12/14 08:14:18;;;;;;;11.90;6.08;;;;;;;7.95;62.39;101796.73;1886077;76;21632;-46
2022/12/14 08:16:50;;;;;;;19.40;7.42;;;;;;;8.44;61.72;101794.83;1886358;76;20995;-47
2022/12/14 08:19:20;;;;;;;19.87;6.95;;;;;;;8.59;61.19;101797.69;1886099;76;21018;-45
2022/12/14 08:21:51;;;;;;;12.73;5.00;;;;;;;8.79;60.25;101794.78;1886092;76;21096;-47
2022/12/14 08:24:19;;;;;;;14.95;5.37;;;;;;;8.96;59.73;101798.91;1886272;76;21019;-46
2022/12/14 08:26:48;;;;;;;13.43;6.10;;;;;;;8.85;59.95;101800.38;1886239;76;21121;-47
2022/12/14 08:29:20;;;;;;;18.07;7.35;;;;;;;8.54;60.48;101804.78;1886101;76;21046;-46
2022/12/14 08:31:49;;;;;;;18.25;7.05;;;;;;;8.36;60.56;101807.16;1886212;76;21096;-45
2022/12/14 08:34:21;;;;;;;13.58;5.80;;;;;;;8.26;60.70;101801.17;1886155;76;21026;-45
2022/12/14 08:36:48;;;;;;;20.15;7.03;;;;;;;8.23;60.67;101799.03;1885751;76;20998;-45
2022/12/14 08:39:17;;;;;;;14.30;5.42;;;;;;;8.24;60.49;101804.68;1886201;76;21477;-47
2022/12/14 08:41:46;;;;;;;9.80;5.05;;;;;;;8.22;60.10;101799.45;1886051;76;21022;-50
2022/12/14 08:44:16;;;;;;;13.45;5.45;;;;;;;8.27;59.88;101799.41;1886105;76;21069;-47
2022/12/14 08:46:45;;;;;;;12.20;5.10;;;;;;;8.35;59.40;101802.78;1886213;76;21061;-47
2022/12/14 08:49:13;;;;;;;15.05;5.42;;;;;;;8.58;58.47;101808.23;1886083;76;21022;-48
2022/12/14 08:51:42;;;;;;;11.73;5.47;;;;;;;8.56;58.39;101808.25;1886040;76;21203;-48
2022/12/14 08:54:11;;;;;;;11.43;5.58;;;;;;;9.05;57.65;101807.97;1886249;76;21038;-47
2022/12/14 08:56:40;;;;;;;15.93;5.80;;;;;;;9.34;57.03;101815.84;1886245;76;21022;-45
2022/12/14 08:59:08;;;;;;;12.68;4.85;;;;;;;9.31;56.68;101822.45;1886240;76;21084;-45
2022/12/14 09:01:38;;;;;;;11.57;5.42;;;;;;;8.86;57.20;101826.63;1882433;75;21087;-47
2022/12/14 09:04:07;;;;;;;16.48;6.20;;;;;;;8.45;58.00;101828.52;1876356;76;21110;-46
2022/12/14 09:06:38;;;;;;;17.05;7.60;;;;;;;8.13;58.09;101825.80;1881941;76;21613;-47
2022/12/14 09:09:08;;;;;;;17.35;6.35;;;;;;;7.84;58.14;101819.13;1854814;77;20993;-45
2022/12/14 09:11:37;;;;;;;20.10;8.15;;;;;;;7.71;58.31;101823.63;1854579;77;21464;-45
2022/12/14 09:14:06;;;;;;;14.23;5.42;;;;;;;8.37;57.65;101821.14;1854755;77;21033;-47
2022/12/14 09:16:34;;;;;;;10.82;5.00;;;;;;;10.08;53.95;101821.08;1854415;77;21060;-47
2022/12/14 09:19:03;;;;;;;8.63;4.22;;;;;;;10.00;53.50;101824.72;1858977;76;21025;-46
2022/12/14 09:21:32;;;;;;;13.00;5.35;;;;;;;9.54;54.27;101822.94;1854583;77;21064;-46
2022/12/14 09:24:01;;;;;;;11.93;4.67;;;;;;;9.00;54.85;101832.12;1854812;77;21021;-47
2022/12/14 09:26:30;;;;;;;9.00;4.40;;;;;;;8.57;55.46;101827.03;1854634;77;21036;-46
2022/12/14 09:28:59;;;;;;;8.78;3.98;;;;;;;8.63;55.80;101830.02;1854449;77;21029;-46
2022/12/14 09:31:28;;;;;;;9.88;4.53;;;;;;;9.84;53.62;101829.85;1854598;77;21025;-45
2022/12/14 09:33:57;;;;;;;15.50;5.90;;;;;;;10.78;51.69;101823.55;1854667;77;21025;-44
2022/12/14 09:36:27;;;;;;;7.92;4.10;;;;;;;12.20;49.57;101817.34;1874433;76;21068;-47
2022/12/14 09:38:58;;;;;;;8.10;4.50;;;;;;;13.73;47.20;101816.06;1869937;77;21024;-46
2022/12/14 09:41:35;;;;;;;9.60;5.00;;;;;;;14.48;46.01;101814.63;1869650;77;21044;-46
2022/12/14 09:44:25;;;;;;;9.50;4.10;;;;;;;15.13;45.37;101816.56;1884628;76;21528;-45
2022/12/14 09:47:15;;;;;;;8.28;3.80;;;;;;;15.74;44.20;101813.98;1886248;76;21116;-47
2022/12/14 09:50:00;;;;;;;10.35;4.05;;;;;;;15.83;43.46;101809.59;1886084;76;21140;-46
2022/12/14 09:52:43;;;;;;;8.33;3.10;;;;;;;15.17;43.89;101806.22;1874235;76;21090;-45
2022/12/14 09:55:27;;;;;;;11.95;5.17;;;;;;;14.10;45.01;101812.94;1852805;77;21567;-45
2022/12/14 09:57:59;;;;;;;;;;;;;;;12.51;46.36;101811.17;1855274;77;21051;-46
2022/12/14 10:00:33;;;;;;;13.88;5.47;;;;;;;12.12;47.42;101809.66;1852796;77;20189;-46
2022/12/14 10:03:27;;;;;;;15.08;4.83;;;;;;;11.93;48.06;101814.59;1852083;77;21469;-45
2022/12/14 10:06:00;;;;;;;;;;;;;;;12.17;48.29;101802.91;1855452;77;21128;-46
2022/12/14 10:08:34;;;;;;;9.63;4.60;;;;;;;13.02;47.22;101802.55;1852637;77;20535;-46
2022/12/14 10:11:18;;;;;;;10.78;4.90;;;;;;;12.43;48.28;101811.41;1848719;77;21183;-45
2022/12/14 10:14:04;;;;;;;;;;;;;;;11.85;49.28;101816.52;1855488;77;21070;-44
2022/12/14 10:16:36;;;;;;;12.40;5.62;;;;;;;10.99;50.28;101825.28;1852679;77;20146;-50
2022/12/14 10:19:19;;;;;;;11.33;4.80;;;;;;;10.31;50.92;101829.41;1852119;77;21078;-47
2022/12/14 10:21:52;;;;;;;;;;;;;;;9.82;51.52;101832.96;1855656;77;21043;-46
2022/12/14 10:24:26;;;;;;;11.80;4.83;;;;;;;9.29;52.01;101839.55;1853242;77;20145;-47
2022/12/14 10:26:56;;;;;;;9.98;4.60;;;;;;;8.87;52.50;101837.58;1853748;75;21042;-46
2022/12/14 10:29:37;;;;;;;11.70;5.25;;;;;;;8.57;52.86;101849.34;1854055;77;21089;-45
2022/12/14 10:32:08;;;;;;;11.35;4.80;;;;;;;8.40;53.18;101852.16;1854323;75;21071;-45
2022/12/14 10:34:40;;;;;;;11.00;5.05;;;;;;;8.76;52.99;101855.25;1853086;76;21022;-49
2022/12/14 10:37:31;;;;;;;13.28;5.03;;;;;;;8.99;52.34;101847.48;1847336;77;21062;-46
2022/12/14 10:40:30;;;;;;;11.48;4.50;;;;;;;9.08;51.92;101852.59;1854226;77;21042;-46
2022/12/14 10:43:30;;;;;;;8.15;4.30;;;;;;;8.98;51.95;101866.73;1854166;77;21046;-46
2022/12/14 10:46:34;;;;;;;8.70;4.53;;;;;;;9.85;50.35;101870.60;1849817;77;21558;-46
2022/12/14 10:49:18;;;;;;;7.53;4.30;;;;;;;11.79;47.01;101862.88;1852679;77;21051;-46
2022/12/14 10:51:49;;;;;;;11.93;4.58;;;;;;;12.18;45.89;101861.42;1852849;77;21066;-46
2022/12/14 10:54:24;;;;;;;8.00;3.85;;;;;;;13.21;44.39;101866.27;1852765;76;21094;-47
2022/12/14 10:56:53;;;;;;;10.53;4.03;;;;;;;13.97;43.22;101867.75;1850531;76;21128;-46
2022/12/14 10:59:25;;;;;;;10.38;3.58;;;;;;;14.18;42.49;101868.75;1854889;77;21473;-46
2022/12/14 11:01:59;;;;;;;7.58;3.83;;;;;;;14.57;42.01;101865.55;1854900;77;21136;-46
2022/12/14 11:04:46;;;;;;;7.70;3.67;;;;;;;15.03;41.36;101865.11;1853712;77;21124;-46
2022/12/14 11:07:17;;;;;;;9.83;4.33;;;;;;;15.32;40.68;101871.05;1852409;77;21030;-45
2022/12/14 11:09:46;;;;;;;8.65;4.20;;;;;;;15.59;40.12;101865.92;1853038;77;21022;-46
2022/12/14 11:12:18;;;;;;;9.83;3.98;;;;;;;15.61;40.00;101862.73;1853093;77;21074;-46
2022/12/14 11:15:05;;;;;;;10.05;4.15;;;;;;;15.21;40.46;101866.17;1853058;77;21481;-46
2022/12/14 11:17:39;;;;;;;9.30;3.80;;;;;;;15.19;39.95;101861.39;1853010;77;21137;-49
2022/12/14 11:20:10;;;;;;;9.00;3.80;;;;;;;14.85;40.35;101869.38;1853050;77;21488;-46
2022/12/14 11:22:51;;;;;;;8.45;4.05;;;;;;;14.01;41.40;101872.86;1853130;77;21165;-45
2022/12/14 11:25:34;;;;;;;9.28;3.95;;;;;;;14.07;41.22;101871.78;1837001;77;21548;-47
2022/12/14 11:28:18;;;;;;;10.50;4.90;;;;;;;14.29;40.86;101873.20;1854880;77;21520;-45
2022/12/14 11:31:07;;;;;;;21.37;9.25;;;;;;;14.45;40.61;101868.20;1848498;77;21513;-46
2022/12/14 11:33:53;;;;;;;8.28;4.12;;;;;;;14.06;41.05;101874.89;1848307;78;21047;-46
2022/12/14 11:36:37;;;;;;;10.75;5.03;;;;;;;13.84;41.40;101873.46;1848292;76;21103;-46
2022/12/14 11:39:21;;;;;;;8.43;4.15;;;;;;;14.02;41.52;101869.78;1841222;77;21060;-46
2022/12/14 11:41:52;;;;;;;8.98;3.50;;;;;;;14.15;41.21;101873.71;1852975;77;21473;-45
2022/12/14 11:44:25;;;;;;;11.10;4.45;;;;;;;13.85;41.60;101870.34;1831911;77;21031;-47
2022/12/14 11:47:02;;;;;;;11.15;4.50;;;;;;;13.17;42.47;101873.90;1817851;79;21481;-46
2022/12/14 11:49:40;;;;;;;10.23;4.03;;;;;;;12.23;43.78;101880.64;1817759;79;21153;-46
2022/12/14 11:52:24;;;;;;;7.33;3.58;;;;;;;11.96;43.97;101883.57;1846509;77;21580;-46
2022/12/14 11:54:53;;;;;;;;;;;;;;;11.51;44.20;101888.64;1855490;76;21054;-50
2022/12/14 11:57:28;;;;;;;11.60;3.80;;;;;;;11.40;44.80;101893.31;1881482;76;20121;-47
2022/12/14 12:00:03;;;;;;;8.68;3.95;;;;;;;11.76;44.15;101896.78;1845440;76;21518;-51
2022/12/14 12:02:50;;;;;;;7.83;3.65;;;;;;;12.03;43.52;101896.16;1842568;78;21082;-46
2022/12/14 12:05:21;;;;;;;9.98;3.55;;;;;;;12.03;43.38;101893.53;1842991;78;21125;-46
2022/12/14 12:07:56;;;;;;;7.20;3.90;;;;;;;11.91;43.25;101895.55;1843450;78;21055;-45
2022/12/14 12:10:27;;;;;;;9.60;3.95;;;;;;;11.51;43.54;101903.58;1843386;78;21341;-45
2022/12/14 12:13:03;;;;;;;9.10;4.67;;;;;;;11.24;43.97;101905.98;1843224;77;21078;-44
2022/12/14 12:15:34;;;;;;;10.63;4.37;;;;;;;11.20;44.06;101901.23;1843443;78;21047;-44